aviador You're here:

KAUS Decoded Metar

AUSTIN in TX, USA
Report Time2017-06-29 11:53:00
UTC Time2017-06-29 12:28:37
Flight Rules ifr IFR
Wind180° at 03 kt
W.Decomp.*RWY 17: 3.0 kt HW 0.2 kt RCW
W.Rank180° ranks 1
Current wind is below 180° avg. (8.6)
Visibility9999 m
Phenomena:N/A
Clouds:Broken 005 Hf
Overcast 011 Hf
Ceiling500 ft
Temp24°C (ISA +10)
Dew Point24°C (100% RH)
QNH1012 hPa
Density Alt2,142 ft
Elevation545 ft
Report Wrong Elevation
Raw Report
METAR KAUS 291153Z 18003KT 10SM BKN005 OVC011 24/24 A2987 RMK AO2 SLP103
T02440239 10256 20228 53004=

Extra information for KAUS:More info

Metar Taf Metar & Taf Last 4 Metars F.Rules Stats Wind Profile Meteogram Temp Stats Airport Information Weather charts Add Link Nearby VenuesMetar ALERT Operation Metar Decoded Social comments

AIRNAV info for KAUS